createdAt,value
2018-06-27T00:01:27.421Z,14.50
2018-06-27T00:03:56.180Z,14.50
2018-06-27T00:06:25.013Z,14.40
2018-06-27T00:08:53.877Z,14.40
2018-06-27T00:13:51.237Z,14.30
2018-06-27T00:16:20.025Z,14.20
2018-06-27T00:18:48.825Z,14.10
2018-06-27T00:21:17.601Z,14.10
2018-06-27T00:23:46.497Z,14.00
2018-06-27T00:26:15.316Z,14.00
2018-06-27T00:28:44.053Z,13.90
2018-06-27T00:31:12.833Z,13.90
2018-06-27T00:33:41.626Z,13.80
2018-06-27T00:36:10.409Z,13.70
2018-06-27T00:38:39.233Z,13.70
2018-06-27T00:41:07.993Z,13.70
2018-06-27T00:43:36.797Z,13.60
2018-06-27T00:46:05.637Z,13.50
2018-06-27T00:48:34.453Z,13.50
2018-06-27T00:51:03.261Z,13.40
2018-06-27T00:53:37.467Z,13.40
2018-06-27T00:56:06.268Z,13.30
2018-06-27T00:58:35.021Z,13.30
2018-06-27T01:01:03.844Z,13.20
2018-06-27T01:03:32.614Z,13.20
2018-06-27T01:06:01.432Z,13.10
2018-06-27T01:08:32.224Z,13.00
2018-06-27T01:11:01.936Z,13.00
2018-06-27T01:13:31.768Z,13.00
2018-06-27T01:16:01.552Z,12.90
2018-06-27T01:18:30.352Z,12.90
2018-06-27T01:20:59.136Z,12.80
2018-06-27T01:23:27.924Z,12.70
2018-06-27T01:25:57.748Z,12.70
2018-06-27T01:28:26.552Z,12.70
2018-06-27T01:30:55.308Z,12.60
2018-06-27T01:33:24.108Z,12.60
2018-06-27T01:35:53.296Z,12.50
2018-06-27T01:38:23.120Z,12.50
2018-06-27T01:40:52.921Z,12.40
2018-06-27T01:43:21.732Z,12.40
2018-06-27T01:45:51.548Z,12.30
2018-06-27T01:48:20.328Z,12.30
2018-06-27T01:50:51.071Z,12.30
2018-06-27T01:53:23.131Z,12.20
2018-06-27T01:55:51.920Z,12.20
2018-06-27T01:58:20.684Z,12.20
2018-06-27T02:00:49.495Z,12.10
2018-06-27T02:03:18.272Z,12.00
2018-06-27T02:05:47.658Z,12.00
2018-06-27T02:08:16.466Z,12.00
2018-06-27T02:10:45.371Z,11.90
2018-06-27T02:13:14.155Z,11.90
2018-06-27T02:15:42.935Z,11.90
2018-06-27T02:18:13.739Z,11.80
2018-06-27T02:20:45.704Z,11.80
2018-06-27T02:23:14.499Z,11.70
2018-06-27T02:25:43.292Z,11.70
2018-06-27T02:28:12.088Z,11.70
2018-06-27T02:30:40.884Z,11.60
2018-06-27T02:33:09.659Z,11.60
2018-06-27T02:35:38.451Z,11.60
2018-06-27T02:38:08.288Z,11.50
2018-06-27T02:43:06.588Z,11.50
2018-06-27T02:45:36.356Z,11.40
2018-06-27T02:48:05.131Z,11.40
2018-06-27T02:50:35.980Z,11.40
2018-06-27T02:53:05.827Z,11.30
2018-06-27T02:55:34.672Z,11.30
2018-06-27T02:58:05.892Z,11.30
2018-06-27T03:00:34.716Z,11.30
2018-06-27T03:03:04.579Z,11.20
2018-06-27T03:05:33.428Z,11.20
2018-06-27T03:08:02.196Z,11.20
2018-06-27T03:10:30.990Z,11.10
2018-06-27T03:12:59.790Z,11.10
2018-06-27T03:15:28.565Z,11.10
2018-06-27T03:17:57.348Z,11.00
2018-06-27T03:20:26.182Z,11.00
2018-06-27T03:22:55.908Z,11.00
2018-06-27T03:25:24.832Z,10.90
2018-06-27T03:27:53.612Z,10.90
2018-06-27T03:30:25.948Z,10.90
2018-06-27T03:32:55.710Z,10.90
2018-06-27T03:35:24.495Z,10.90
2018-06-27T03:37:53.295Z,10.80
2018-06-27T03:40:22.076Z,10.80
2018-06-27T03:42:51.875Z,10.80
2018-06-27T03:45:20.688Z,10.80
2018-06-27T03:47:49.452Z,10.80
2018-06-27T03:50:20.312Z,10.80
2018-06-27T03:55:17.780Z,10.80
2018-06-27T03:57:46.596Z,10.80
2018-06-27T04:00:18.316Z,10.80
2018-06-27T04:02:47.120Z,10.90
2018-06-27T04:05:16.900Z,10.90
2018-06-27T04:07:47.099Z,10.90
2018-06-27T04:10:16.924Z,11.00
2018-06-27T04:12:46.828Z,11.00
2018-06-27T04:15:17.572Z,11.00
2018-06-27T04:20:17.915Z,11.10
2018-06-27T04:22:46.611Z,11.20
2018-06-27T04:25:15.411Z,11.20
2018-06-27T04:27:48.995Z,11.30
2018-06-27T04:30:17.784Z,11.30
2018-06-27T04:32:46.597Z,11.40
2018-06-27T04:35:16.372Z,11.40
2018-06-27T04:40:14.680Z,11.60
2018-06-27T04:42:44.496Z,11.60
2018-06-27T04:45:13.292Z,11.70
2018-06-27T04:47:42.071Z,11.70
2018-06-27T04:50:10.876Z,11.80
2018-06-27T04:52:40.684Z,11.90
2018-06-27T04:55:09.468Z,11.90
2018-06-27T04:57:38.231Z,12.00
2018-06-27T05:00:06.997Z,12.10
2018-06-27T05:02:35.815Z,12.20
2018-06-27T05:05:04.783Z,12.30
2018-06-27T05:07:34.672Z,12.30
2018-06-27T05:10:03.424Z,12.40
2018-06-27T05:12:32.220Z,12.50
2018-06-27T05:15:02.000Z,12.60
2018-06-27T05:17:34.416Z,12.60
2018-06-27T05:20:04.207Z,12.70
2018-06-27T05:22:35.016Z,12.80
2018-06-27T05:25:03.827Z,12.90
2018-06-27T05:27:33.720Z,13.00
2018-06-27T05:30:03.695Z,13.10
2018-06-27T05:32:32.796Z,13.20
2018-06-27T05:35:01.636Z,13.30
2018-06-27T05:37:30.424Z,13.40
2018-06-27T05:39:59.195Z,13.60
2018-06-27T05:42:28.028Z,13.70
2018-06-27T05:44:57.820Z,13.80
2018-06-27T05:47:26.607Z,14.00
2018-06-27T05:49:55.379Z,14.10
2018-06-27T05:52:24.167Z,14.30
2018-06-27T05:54:58.391Z,14.40
2018-06-27T05:57:28.187Z,14.60
2018-06-27T05:59:58.016Z,14.70
2018-06-27T06:02:26.791Z,14.90
2018-06-27T06:04:58.746Z,15.00
2018-06-27T06:07:27.617Z,15.20
2018-06-27T06:09:56.502Z,15.40
2018-06-27T06:12:25.215Z,15.50
2018-06-27T06:14:54.379Z,15.70
2018-06-27T06:17:23.196Z,15.90
2018-06-27T06:19:52.062Z,16.10
2018-06-27T06:22:20.888Z,16.20
2018-06-27T06:24:50.716Z,16.40
2018-06-27T06:27:19.479Z,16.60
2018-06-27T06:29:48.264Z,16.80
2018-06-27T06:32:17.172Z,17.10
2018-06-27T06:34:45.843Z,17.40
2018-06-27T06:37:14.632Z,17.70
2018-06-27T06:39:43.407Z,17.90
2018-06-27T06:42:12.200Z,18.10
2018-06-27T06:44:40.987Z,18.30
2018-06-27T06:47:09.776Z,18.50
2018-06-27T06:49:38.520Z,18.70
2018-06-27T06:52:07.275Z,19.00
2018-06-27T06:54:38.079Z,19.20
2018-06-27T06:57:06.800Z,19.40
2018-06-27T06:59:35.551Z,19.60
2018-06-27T07:02:05.367Z,19.80
2018-06-27T07:04:36.234Z,20.10
2018-06-27T07:07:04.991Z,20.40
2018-06-27T07:09:34.771Z,20.60
2018-06-27T07:12:03.575Z,20.70
2018-06-27T07:14:32.371Z,21.00
2018-06-27T07:17:01.607Z,21.10
2018-06-27T07:19:30.367Z,21.30
2018-06-27T07:21:59.163Z,21.50
2018-06-27T07:24:27.931Z,21.60
2018-06-27T07:26:56.719Z,21.70
2018-06-27T07:29:26.531Z,21.90
2018-06-27T07:31:55.335Z,22.10
2018-06-27T07:34:24.153Z,22.20
2018-06-27T07:36:52.923Z,22.30
2018-06-27T07:39:21.687Z,22.50
2018-06-27T07:41:50.463Z,22.70
2018-06-27T07:44:19.294Z,22.80
2018-06-27T07:46:49.068Z,23.00
2018-06-27T07:49:17.803Z,23.10
2018-06-27T07:51:47.568Z,23.40
2018-06-27T07:54:16.375Z,23.50
2018-06-27T07:56:45.148Z,23.70
2018-06-27T07:59:14.941Z,23.90
2018-06-27T08:01:43.708Z,24.00
2018-06-27T08:04:12.511Z,24.10
2018-06-27T08:06:48.752Z,24.20
2018-06-27T08:09:17.563Z,24.20
2018-06-27T08:11:47.392Z,24.30
2018-06-27T08:14:16.127Z,24.30
2018-06-27T08:16:44.963Z,24.30
2018-06-27T08:19:13.695Z,24.30
2018-06-27T08:21:43.475Z,24.40
2018-06-27T08:24:12.262Z,24.50
2018-06-27T08:26:41.051Z,24.60
2018-06-27T08:29:10.852Z,24.70
2018-06-27T08:31:39.667Z,24.70
2018-06-27T08:34:09.463Z,24.80
2018-06-27T08:36:38.231Z,24.80
2018-06-27T08:39:08.493Z,24.90
2018-06-27T08:45:10.647Z,25.10
2018-06-27T08:50:08.771Z,25.40
2018-06-27T08:52:38.575Z,25.60
2018-06-27T08:55:07.344Z,25.70
2018-06-27T08:57:36.137Z,25.90
2018-06-27T09:00:04.943Z,26.00
2018-06-27T09:02:33.743Z,26.00
2018-06-27T09:05:02.503Z,26.10
2018-06-27T09:07:31.267Z,26.20
2018-06-27T09:10:00.044Z,26.20
2018-06-27T09:12:28.871Z,26.20
2018-06-27T09:14:57.599Z,26.30
2018-06-27T09:17:27.343Z,26.40
2018-06-27T09:19:56.143Z,26.50
2018-06-27T09:22:24.915Z,26.50
2018-06-27T09:24:54.755Z,26.70
2018-06-27T09:27:26.599Z,26.80
2018-06-27T09:29:56.413Z,26.90
2018-06-27T09:32:26.227Z,27.00
2018-06-27T09:34:55.003Z,27.20
2018-06-27T09:37:25.867Z,27.40
2018-06-27T09:39:55.639Z,27.50
2018-06-27T09:42:24.455Z,27.70
2018-06-27T09:44:54.319Z,27.80
2018-06-27T09:47:23.202Z,28.00
2018-06-27T09:49:51.879Z,28.10
2018-06-27T09:52:20.719Z,28.20
2018-06-27T09:54:49.503Z,28.30
2018-06-27T09:57:18.307Z,28.30
2018-06-27T09:59:47.083Z,28.40
2018-06-27T10:02:15.871Z,28.50
2018-06-27T10:04:44.647Z,28.60
2018-06-27T10:07:13.387Z,28.70
2018-06-27T10:09:42.239Z,28.80
2018-06-27T10:12:11.014Z,28.90
2018-06-27T10:17:13.320Z,29.00
2018-06-27T10:22:10.612Z,29.20
2018-06-27T10:24:41.414Z,29.30
2018-06-27T10:27:10.191Z,29.50
2018-06-27T10:29:39.995Z,29.60
2018-06-27T10:32:08.795Z,29.50
2018-06-27T10:34:37.582Z,29.60
2018-06-27T10:37:06.394Z,29.50
2018-06-27T10:39:35.202Z,29.50
2018-06-27T10:42:04.035Z,29.60
2018-06-27T10:44:32.881Z,29.60
2018-06-27T10:47:02.654Z,29.60
2018-06-27T10:49:32.467Z,29.60
2018-06-27T10:52:01.247Z,29.70
2018-06-27T10:54:31.055Z,29.80
2018-06-27T10:56:59.850Z,29.80
2018-06-27T10:59:28.642Z,29.90
2018-06-27T11:01:57.423Z,29.80
2018-06-27T11:04:26.206Z,29.80
2018-06-27T11:06:55.015Z,29.80
2018-06-27T11:09:23.799Z,29.70
2018-06-27T11:11:52.555Z,29.60
2018-06-27T11:14:21.371Z,29.50
2018-06-27T11:16:50.173Z,29.40
2018-06-27T11:19:18.959Z,29.30
2018-06-27T11:21:47.719Z,29.30
2018-06-27T11:24:16.527Z,29.20
2018-06-27T11:26:45.307Z,29.20
2018-06-27T11:29:14.111Z,29.20
2018-06-27T11:31:42.875Z,29.10
2018-06-27T11:34:12.683Z,29.00
2018-06-27T11:36:41.507Z,28.90
2018-06-27T11:39:11.976Z,28.70
2018-06-27T11:41:41.075Z,28.40
2018-06-27T11:44:10.971Z,28.10
2018-06-27T11:46:40.723Z,28.10
2018-06-27T11:49:09.535Z,28.10
2018-06-27T11:54:06.699Z,28.10
2018-06-27T11:56:35.499Z,28.20
2018-06-27T11:59:04.291Z,28.20
2018-06-27T12:01:33.179Z,28.10
2018-06-27T12:04:02.939Z,28.10
2018-06-27T12:06:31.763Z,28.10
2018-06-27T12:09:00.555Z,28.20
2018-06-27T12:11:29.379Z,28.20
2018-06-27T12:13:59.155Z,28.20
2018-06-27T12:16:28.950Z,28.10
2018-06-27T12:18:57.735Z,28.10
2018-06-27T12:21:26.614Z,28.10
2018-06-27T12:23:55.562Z,28.20
2018-06-27T12:26:24.380Z,28.20
2018-06-27T12:28:54.285Z,28.10
2018-06-27T12:31:24.442Z,28.20
2018-06-27T12:33:56.778Z,28.20
2018-06-27T12:36:25.718Z,28.40
2018-06-27T12:38:57.282Z,28.60
2018-06-27T12:41:26.150Z,28.70
2018-06-27T12:44:00.158Z,28.80
2018-06-27T12:46:31.046Z,28.70
2018-06-27T12:48:59.886Z,28.70
2018-06-27T12:51:29.607Z,28.80
2018-06-27T12:53:58.384Z,28.90
2018-06-27T12:56:31.202Z,29.00
2018-06-27T12:59:00.082Z,29.10
2018-06-27T13:03:58.329Z,29.30
2018-06-27T13:06:30.598Z,29.50
2018-06-27T13:09:01.494Z,29.50
2018-06-27T13:11:30.298Z,29.50
2018-06-27T13:13:59.034Z,29.50
2018-06-27T13:18:56.286Z,29.70
2018-06-27T13:21:25.022Z,29.90
2018-06-27T13:23:53.886Z,30.00
2018-06-27T13:26:22.606Z,30.20
2018-06-27T13:28:51.444Z,30.20
2018-06-27T13:31:21.242Z,30.20
2018-06-27T13:33:51.046Z,30.20
2018-06-27T13:36:19.831Z,30.10
2018-06-27T13:38:48.658Z,30.10
2018-06-27T13:41:18.394Z,30.10
2018-06-27T13:43:47.146Z,30.10
2018-06-27T13:46:15.902Z,29.90
2018-06-27T13:48:44.715Z,29.80
2018-06-27T13:51:14.394Z,29.70
2018-06-27T13:53:45.119Z,29.70
2018-06-27T13:56:13.938Z,29.60
2018-06-27T13:58:42.731Z,29.40
2018-06-27T14:03:43.044Z,29.40
2018-06-27T14:06:11.846Z,29.30
2018-06-27T14:08:40.658Z,29.30
2018-06-27T14:13:39.950Z,29.00
2018-06-27T14:16:10.780Z,28.90
2018-06-27T14:18:41.666Z,28.80
2018-06-27T14:21:11.426Z,28.80
2018-06-27T14:23:40.209Z,28.70
2018-06-27T14:26:08.957Z,28.60
2018-06-27T14:28:38.710Z,28.50
2018-06-27T14:31:08.338Z,28.50
2018-06-27T14:33:37.162Z,28.40
2018-06-27T14:36:05.982Z,28.30
2018-06-27T14:38:35.806Z,28.30
2018-06-27T14:41:07.558Z,28.30
2018-06-27T14:43:36.350Z,28.10
2018-06-27T14:46:05.172Z,28.00
2018-06-27T14:48:33.895Z,27.90
2018-06-27T14:51:03.070Z,27.40
2018-06-27T14:53:31.964Z,26.90
2018-06-27T14:56:00.765Z,26.60
2018-06-27T14:58:29.577Z,26.60
2018-06-27T15:03:26.855Z,26.50
2018-06-27T15:05:55.651Z,26.40
2018-06-27T15:08:24.429Z,26.30
2018-06-27T15:10:54.191Z,26.00
2018-06-27T15:13:22.938Z,26.10
2018-06-27T15:15:51.673Z,26.10
2018-06-27T15:18:21.422Z,26.00
2018-06-27T15:20:51.159Z,26.00
2018-06-27T15:23:19.974Z,26.10
2018-06-27T15:25:48.882Z,26.20
2018-06-27T15:28:26.654Z,26.40
2018-06-27T15:30:56.384Z,26.60
2018-06-27T15:33:26.126Z,26.90
2018-06-27T15:35:58.906Z,27.10
2018-06-27T15:38:27.686Z,27.30
2018-06-27T15:40:56.498Z,27.50
2018-06-27T15:43:28.678Z,27.70
2018-06-27T15:45:58.455Z,27.90
2018-06-27T15:48:27.259Z,28.00
2018-06-27T15:50:56.042Z,28.00
2018-06-27T15:53:24.826Z,28.20
2018-06-27T15:55:57.262Z,28.30
2018-06-27T15:58:26.333Z,28.40
2018-06-27T16:03:34.254Z,28.70
2018-06-27T16:08:53.678Z,29.10
2018-06-27T16:11:30.227Z,29.20
2018-06-27T16:14:04.682Z,29.30
2018-06-27T16:16:39.065Z,29.60
2018-06-27T16:19:07.902Z,29.80
2018-06-27T16:21:37.006Z,29.90
2018-06-27T16:24:06.009Z,29.60
2018-06-27T16:26:34.793Z,29.10
2018-06-27T16:29:03.537Z,29.00
2018-06-27T16:31:33.378Z,28.70
2018-06-27T16:34:06.033Z,28.60
2018-06-27T16:36:34.864Z,28.50
2018-06-27T16:39:05.588Z,28.30
2018-06-27T16:41:34.389Z,28.10
2018-06-27T16:44:04.090Z,28.00
2018-06-27T16:46:34.347Z,27.80
2018-06-27T16:49:03.641Z,27.70
2018-06-27T16:51:32.598Z,27.70
2018-06-27T16:54:04.614Z,27.70
2018-06-27T16:56:34.403Z,27.70
2018-06-27T16:59:03.429Z,27.70
2018-06-27T17:01:32.340Z,27.70
2018-06-27T17:04:01.498Z,27.80
2018-06-27T17:06:31.225Z,27.90
2018-06-27T17:09:00.039Z,27.90
2018-06-27T17:11:28.825Z,27.80
2018-06-27T17:13:57.637Z,27.90
2018-06-27T17:18:55.065Z,27.90
2018-06-27T17:21:23.717Z,27.80
2018-06-27T17:23:52.553Z,27.70
2018-06-27T17:26:21.337Z,27.70
2018-06-27T17:28:52.073Z,27.70
2018-06-27T17:31:20.873Z,27.70
2018-06-27T17:33:49.707Z,27.60
2018-06-27T17:36:18.541Z,27.50
2018-06-27T17:38:48.229Z,27.40
2018-06-27T17:41:18.085Z,27.20
2018-06-27T17:43:48.893Z,27.00
2018-06-27T17:46:18.740Z,26.80
2018-06-27T17:48:50.569Z,26.70
2018-06-27T17:51:21.309Z,26.50
2018-06-27T17:53:50.104Z,26.30
2018-06-27T17:56:18.877Z,26.10
2018-06-27T17:58:47.661Z,25.90
2018-06-27T18:01:17.482Z,25.70
2018-06-27T18:03:50.061Z,25.60
2018-06-27T18:06:32.222Z,25.40
2018-06-27T18:09:01.965Z,25.20
2018-06-27T18:11:37.400Z,25.00
2018-06-27T18:14:10.414Z,24.80
2018-06-27T18:16:44.495Z,24.60
2018-06-27T18:19:14.234Z,24.40
2018-06-27T18:21:44.050Z,24.30
2018-06-27T18:24:12.862Z,24.10
2018-06-27T18:26:41.562Z,23.90
2018-06-27T18:29:10.361Z,23.70
2018-06-27T18:31:41.066Z,23.60
2018-06-27T18:34:10.853Z,23.40
2018-06-27T18:36:39.809Z,23.30
2018-06-27T18:39:09.829Z,23.20
2018-06-27T18:41:39.943Z,23.00
2018-06-27T18:44:08.754Z,22.80
2018-06-27T18:46:37.826Z,22.70
2018-06-27T18:49:07.689Z,22.50
2018-06-27T18:51:43.557Z,22.30
2018-06-27T18:54:12.433Z,22.20
2018-06-27T18:56:46.657Z,22.00
2018-06-27T18:59:18.890Z,21.80
2018-06-27T19:01:47.761Z,21.70
2018-06-27T19:04:16.605Z,21.50
2018-06-27T19:06:45.381Z,21.40
2018-06-27T19:09:14.165Z,21.20
2018-06-27T19:11:45.006Z,21.10
2018-06-27T19:14:19.261Z,20.90
2018-06-27T19:16:50.069Z,20.80
2018-06-27T19:19:19.001Z,20.70
2018-06-27T19:21:47.775Z,20.50
2018-06-27T19:24:16.785Z,20.40
2018-06-27T19:26:45.621Z,20.30
2018-06-27T19:29:14.401Z,20.10
2018-06-27T19:31:44.173Z,20.00
2018-06-27T19:34:14.017Z,19.90
2018-06-27T19:36:47.043Z,19.80
2018-06-27T19:39:17.845Z,19.60
2018-06-27T19:41:50.433Z,19.50
2018-06-27T19:44:23.249Z,19.40
2018-06-27T19:46:56.199Z,19.30
2018-06-27T19:49:30.033Z,19.20
2018-06-27T19:52:02.877Z,19.10
2018-06-27T19:54:36.752Z,18.90
2018-06-27T19:57:05.589Z,18.90
2018-06-27T19:59:36.420Z,18.70
2018-06-27T20:02:04.784Z,18.60
2018-06-27T20:04:34.076Z,18.50
2018-06-27T20:07:03.393Z,18.40
2018-06-27T20:09:37.883Z,18.30
2018-06-27T20:12:07.704Z,18.20
2018-06-27T20:14:36.559Z,18.10
2018-06-27T20:17:06.340Z,18.00
2018-06-27T20:19:35.220Z,17.90
2018-06-27T20:22:04.193Z,17.80
2018-06-27T20:24:32.876Z,17.80
2018-06-27T20:27:08.398Z,17.70
2018-06-27T20:29:38.260Z,17.60
2018-06-27T20:32:07.248Z,17.50
2018-06-27T20:34:38.064Z,17.40
2018-06-27T20:37:08.938Z,17.30
2018-06-27T20:39:39.716Z,17.30
2018-06-27T20:42:08.513Z,17.20
2018-06-27T20:44:38.328Z,17.10
2018-06-27T20:47:09.162Z,17.00
2018-06-27T20:49:37.976Z,16.90
2018-06-27T20:52:06.729Z,16.90
2018-06-27T20:54:35.525Z,16.80
2018-06-27T20:57:06.373Z,16.70
2018-06-27T21:02:09.269Z,16.50
2018-06-27T21:07:07.360Z,16.40
2018-06-27T21:09:36.152Z,16.30
2018-06-27T21:12:05.168Z,16.20
2018-06-27T21:14:34.051Z,16.20
2018-06-27T21:17:03.860Z,16.10
2018-06-27T21:19:32.725Z,16.10
2018-06-27T21:22:19.392Z,16.00
2018-06-27T21:24:48.349Z,15.90
2018-06-27T21:27:17.300Z,15.80
2018-06-27T21:29:46.092Z,15.80
2018-06-27T21:32:14.892Z,15.70
2018-06-27T21:34:43.919Z,15.70
2018-06-27T21:37:14.688Z,15.60
2018-06-27T21:39:43.516Z,15.60
2018-06-27T21:44:40.760Z,15.50
2018-06-27T21:47:10.716Z,15.50
2018-06-27T21:49:48.884Z,15.40
2018-06-27T21:52:17.128Z,15.40
2018-06-27T21:54:45.440Z,15.30
2018-06-27T21:57:14.216Z,15.30
2018-06-27T21:59:43.020Z,15.30
2018-06-27T22:02:11.816Z,15.30
2018-06-27T22:04:44.249Z,15.20
2018-06-27T22:07:15.044Z,15.20
2018-06-27T22:09:49.316Z,15.10
2018-06-27T22:12:17.628Z,15.10
2018-06-27T22:14:46.032Z,15.10
2018-06-27T22:17:14.909Z,15.00
2018-06-27T22:19:44.681Z,15.00
2018-06-27T22:22:13.480Z,15.00
2018-06-27T22:24:44.376Z,14.90
2018-06-27T22:27:13.220Z,14.90
2018-06-27T22:29:47.604Z,14.90
2018-06-27T22:32:16.416Z,14.80
2018-06-27T22:34:49.832Z,14.80
2018-06-27T22:37:29.100Z,14.80
2018-06-27T22:39:57.872Z,14.80
2018-06-27T22:42:26.708Z,14.80
2018-06-27T22:44:56.456Z,14.70
2018-06-27T22:47:25.321Z,14.70
2018-06-27T22:49:54.063Z,14.60
2018-06-27T22:52:26.076Z,14.60
2018-06-27T22:55:00.404Z,14.60
2018-06-27T22:57:29.680Z,14.50
2018-06-27T22:59:57.916Z,14.50
2018-06-27T23:02:30.424Z,14.50
2018-06-27T23:04:59.246Z,14.40
2018-06-27T23:07:28.204Z,14.40
2018-06-27T23:09:57.020Z,14.30
2018-06-27T23:12:25.873Z,14.30
2018-06-27T23:14:54.728Z,14.30
2018-06-27T23:17:23.608Z,14.30
2018-06-27T23:19:52.460Z,14.20
2018-06-27T23:22:33.480Z,14.20
2018-06-27T23:25:03.256Z,14.20
2018-06-27T23:27:35.620Z,14.20
2018-06-27T23:30:08.222Z,14.10
2018-06-27T23:32:37.051Z,14.10
2018-06-27T23:35:05.924Z,14.10
2018-06-27T23:37:42.804Z,14.10
2018-06-27T23:40:13.604Z,14.10
2018-06-27T23:45:11.804Z,14.10
2018-06-27T23:47:41.599Z,14.10
2018-06-27T23:50:10.360Z,14.10
2018-06-27T23:52:39.160Z,14.10
2018-06-27T23:55:07.924Z,14.10
2018-06-27T23:57:37.737Z,14.10
